createdAt,value
2019-01-25T00:02:18.051Z,34.00
2019-01-25T00:04:47.596Z,32.57
2019-01-25T00:07:16.629Z,33.53
2019-01-25T00:09:45.915Z,33.20
2019-01-25T00:12:15.299Z,32.50
2019-01-25T00:14:45.038Z,34.93
2019-01-25T00:17:14.165Z,36.17
2019-01-25T00:19:43.221Z,33.20
2019-01-25T00:22:12.604Z,34.13
2019-01-25T00:24:41.643Z,32.70
2019-01-25T00:27:10.753Z,31.53
2019-01-25T00:29:40.109Z,32.93
2019-01-25T00:32:09.162Z,32.10
2019-01-25T00:34:38.114Z,33.77
2019-01-25T00:37:07.223Z,32.33
2019-01-25T00:39:36.495Z,33.87
2019-01-25T00:42:05.563Z,37.13
2019-01-25T00:44:34.968Z,33.47
2019-01-25T00:47:04.035Z,33.57
2019-01-25T00:49:33.374Z,34.03
2019-01-25T00:52:02.874Z,33.20
2019-01-25T00:54:32.301Z,33.30
2019-01-25T00:57:01.672Z,34.97
2019-01-25T00:59:30.725Z,34.60
2019-01-25T01:02:00.177Z,34.23
2019-01-25T01:04:29.241Z,35.10
2019-01-25T01:06:58.259Z,34.07
2019-01-25T01:09:27.352Z,32.07
2019-01-25T01:11:56.420Z,36.03
2019-01-25T01:14:25.489Z,35.40
2019-01-25T01:16:54.587Z,34.80
2019-01-25T01:19:24.346Z,33.20
2019-01-25T01:21:53.393Z,34.43
2019-01-25T01:24:22.343Z,34.13
2019-01-25T01:26:51.432Z,34.33
2019-01-25T01:29:20.495Z,33.53
2019-01-25T01:31:49.822Z,34.17
2019-01-25T01:34:19.218Z,33.87
2019-01-25T01:36:48.274Z,34.23
2019-01-25T01:39:17.276Z,34.33
2019-01-25T01:41:46.181Z,31.67
2019-01-25T01:44:15.219Z,33.43
2019-01-25T01:46:44.279Z,34.23
2019-01-25T01:49:13.361Z,32.73
2019-01-25T01:51:45.453Z,32.67
2019-01-25T01:54:14.856Z,33.23
2019-01-25T01:56:43.777Z,33.23
2019-01-25T01:59:13.445Z,32.90
2019-01-25T02:01:42.798Z,33.53
2019-01-25T02:04:11.870Z,33.00
2019-01-25T02:06:40.896Z,33.57
2019-01-25T02:09:09.956Z,33.80
2019-01-25T02:11:39.091Z,33.73
2019-01-25T02:14:08.474Z,33.33
2019-01-25T02:16:37.903Z,32.73
2019-01-25T02:19:07.148Z,33.33
2019-01-25T02:21:36.292Z,34.33
2019-01-25T02:24:05.650Z,33.97
2019-01-25T02:26:34.675Z,35.23
2019-01-25T02:29:03.712Z,34.20
2019-01-25T02:31:32.724Z,34.33
2019-01-25T02:34:01.893Z,36.30
2019-01-25T02:36:30.991Z,33.90
2019-01-25T02:39:00.037Z,32.37
2019-01-25T02:41:29.118Z,36.30
2019-01-25T02:43:58.396Z,34.70
2019-01-25T02:46:28.045Z,31.27
2019-01-25T02:48:56.961Z,33.87
2019-01-25T02:51:26.046Z,33.07
2019-01-25T02:53:55.415Z,34.53
2019-01-25T02:56:24.802Z,33.77
2019-01-25T02:58:53.806Z,33.23
2019-01-25T03:01:22.873Z,33.77
2019-01-25T03:03:51.960Z,33.77
2019-01-25T03:06:21.391Z,34.43
2019-01-25T03:08:51.061Z,34.90
2019-01-25T03:11:20.101Z,34.40
2019-01-25T03:13:49.767Z,34.73
2019-01-25T03:16:18.829Z,33.07
2019-01-25T03:18:47.849Z,35.00
2019-01-25T03:21:17.281Z,34.17
2019-01-25T03:23:46.592Z,35.40
2019-01-25T03:26:16.077Z,34.93
2019-01-25T03:28:45.418Z,34.50
2019-01-25T03:31:14.819Z,34.00
2019-01-25T03:33:44.335Z,34.37
2019-01-25T03:36:14.018Z,34.27
2019-01-25T03:38:43.475Z,33.33
2019-01-25T03:41:12.497Z,33.00
2019-01-25T03:43:41.542Z,35.53
2019-01-25T03:46:10.478Z,35.50
2019-01-25T03:48:39.580Z,36.60
2019-01-25T03:51:08.625Z,37.93
2019-01-25T03:53:37.550Z,36.90
2019-01-25T03:56:06.869Z,35.67
2019-01-25T03:58:35.953Z,35.23
2019-01-25T04:01:05.129Z,35.80
2019-01-25T04:03:34.184Z,33.17
2019-01-25T04:06:03.204Z,36.90
2019-01-25T04:08:32.255Z,35.77
2019-01-25T04:11:03.939Z,36.77
2019-01-25T04:13:32.070Z,36.13
2019-01-25T04:16:01.397Z,36.37
2019-01-25T04:18:30.797Z,36.57
2019-01-25T04:20:59.906Z,35.43
2019-01-25T04:23:28.941Z,37.60
2019-01-25T04:25:57.959Z,36.83
2019-01-25T04:28:27.005Z,35.93
2019-01-25T04:30:56.006Z,35.83
2019-01-25T04:33:25.042Z,36.03
2019-01-25T04:35:54.135Z,36.00
2019-01-25T04:38:23.169Z,35.50
2019-01-25T04:40:52.550Z,37.07
2019-01-25T04:43:21.601Z,35.60
2019-01-25T04:45:50.686Z,36.87
2019-01-25T04:48:19.769Z,36.37
2019-01-25T04:50:48.875Z,36.47
2019-01-25T04:53:17.906Z,36.20
2019-01-25T04:55:47.330Z,36.67
2019-01-25T04:58:17.780Z,38.20
2019-01-25T05:00:47.245Z,37.00
2019-01-25T05:03:16.519Z,39.07
2019-01-25T05:05:46.386Z,37.40
2019-01-25T05:08:17.304Z,37.73
2019-01-25T05:10:46.677Z,39.17
2019-01-25T05:13:15.726Z,36.17
2019-01-25T05:15:44.794Z,37.17
2019-01-25T05:18:14.289Z,37.07
2019-01-25T05:20:43.531Z,38.47
2019-01-25T05:23:12.700Z,37.60
2019-01-25T05:25:41.758Z,38.87
2019-01-25T05:28:20.616Z,36.13
2019-01-25T05:30:58.177Z,36.00
2019-01-25T05:33:27.566Z,38.10
2019-01-25T05:35:56.611Z,34.70
2019-01-25T05:38:25.997Z,35.67
2019-01-25T05:40:55.125Z,35.77
2019-01-25T05:43:24.174Z,36.77
2019-01-25T05:45:53.763Z,36.00
2019-01-25T05:48:29.488Z,36.10
2019-01-25T05:51:02.750Z,34.23
2019-01-25T05:53:32.133Z,34.43
2019-01-25T05:56:01.160Z,35.17
2019-01-25T05:58:30.448Z,35.43
2019-01-25T06:00:59.731Z,36.73
2019-01-25T06:03:28.870Z,34.43
2019-01-25T06:06:01.729Z,36.80
2019-01-25T06:08:34.955Z,36.17
2019-01-25T06:11:11.163Z,36.93
2019-01-25T06:13:41.475Z,36.37
2019-01-25T06:16:10.566Z,38.50
2019-01-25T06:18:39.629Z,36.33
2019-01-25T06:21:09.119Z,35.10
2019-01-25T06:23:38.423Z,37.53
2019-01-25T06:26:10.363Z,37.67
2019-01-25T06:28:43.240Z,35.50
2019-01-25T06:31:17.391Z,38.40
2019-01-25T06:33:47.202Z,37.30
2019-01-25T06:36:18.108Z,37.80
2019-01-25T06:38:48.881Z,36.27
2019-01-25T06:41:18.664Z,37.80
2019-01-25T06:43:51.770Z,38.40
2019-01-25T06:46:21.165Z,36.83
2019-01-25T06:48:51.096Z,36.60
2019-01-25T06:51:20.391Z,35.23
2019-01-25T06:53:50.039Z,34.57
2019-01-25T06:56:19.435Z,38.17
2019-01-25T06:59:16.931Z,32.90
2019-01-25T07:02:05.989Z,34.07
2019-01-25T07:04:36.040Z,33.03
2019-01-25T07:07:09.334Z,34.30
2019-01-25T07:09:39.364Z,33.40
2019-01-25T07:12:09.136Z,36.47
2019-01-25T07:14:39.227Z,35.43
2019-01-25T07:17:08.936Z,35.87
2019-01-25T07:19:38.673Z,35.80
2019-01-25T07:22:08.017Z,36.13
2019-01-25T07:24:37.316Z,38.20
2019-01-25T07:27:06.406Z,36.03
2019-01-25T07:29:35.754Z,38.07
2019-01-25T07:32:05.589Z,36.43
2019-01-25T07:34:34.631Z,37.63
2019-01-25T07:37:03.671Z,39.23
2019-01-25T07:39:32.997Z,39.57
2019-01-25T07:42:02.669Z,38.60
2019-01-25T07:44:32.265Z,39.13
2019-01-25T07:47:02.049Z,39.00
2019-01-25T07:49:31.256Z,37.27
2019-01-25T07:52:00.356Z,39.07
2019-01-25T07:54:29.613Z,38.93
2019-01-25T07:56:58.896Z,36.40
2019-01-25T07:59:28.025Z,37.23
2019-01-25T08:01:57.071Z,38.50
2019-01-25T08:04:26.226Z,37.87
2019-01-25T08:06:55.400Z,41.13
2019-01-25T08:09:25.002Z,36.97
2019-01-25T08:11:54.112Z,38.80
2019-01-25T08:14:23.201Z,37.50
2019-01-25T08:16:52.378Z,36.17
2019-01-25T08:19:21.494Z,37.60
2019-01-25T08:21:50.622Z,38.77
2019-01-25T08:24:19.747Z,36.60
2019-01-25T08:26:48.805Z,38.47
2019-01-25T08:29:18.298Z,35.77
2019-01-25T08:31:47.982Z,38.17
2019-01-25T08:34:17.450Z,38.43
2019-01-25T08:36:46.561Z,37.43
2019-01-25T08:39:15.886Z,36.03
2019-01-25T08:41:45.181Z,35.83
2019-01-25T08:44:14.608Z,37.40
2019-01-25T08:46:43.812Z,36.47
2019-01-25T08:49:12.970Z,40.83
2019-01-25T08:51:42.388Z,35.63
2019-01-25T08:54:11.383Z,35.60
2019-01-25T08:56:40.868Z,38.10
2019-01-25T08:59:10.090Z,38.07
2019-01-25T09:01:39.377Z,37.57
2019-01-25T09:04:08.667Z,38.10
2019-01-25T09:06:37.681Z,37.90
2019-01-25T09:09:09.858Z,36.93
2019-01-25T09:11:38.867Z,34.73
2019-01-25T09:14:07.968Z,34.33
2019-01-25T09:16:36.940Z,38.37
2019-01-25T09:19:06.294Z,38.83
2019-01-25T09:21:35.317Z,37.53
2019-01-25T09:24:04.679Z,35.90
2019-01-25T09:26:33.656Z,36.63
2019-01-25T09:29:02.785Z,36.93
2019-01-25T09:31:31.837Z,37.93
2019-01-25T09:34:01.140Z,38.00
2019-01-25T09:36:30.464Z,37.33
2019-01-25T09:38:59.498Z,38.57
2019-01-25T09:41:28.536Z,37.50
2019-01-25T09:43:57.901Z,37.87
2019-01-25T09:46:26.832Z,35.03
2019-01-25T09:48:55.876Z,35.97
2019-01-25T09:51:25.230Z,37.77
2019-01-25T09:53:54.296Z,35.83
2019-01-25T09:56:23.957Z,35.47
2019-01-25T09:58:55.696Z,36.63
2019-01-25T10:01:25.524Z,35.97
2019-01-25T10:03:55.022Z,35.80
2019-01-25T10:06:24.893Z,34.90
2019-01-25T10:08:57.252Z,36.47
2019-01-25T10:11:26.810Z,36.27
2019-01-25T10:13:56.490Z,35.40
2019-01-25T10:16:25.847Z,37.57
2019-01-25T10:18:55.597Z,35.43
2019-01-25T10:21:24.805Z,35.97
2019-01-25T10:23:54.152Z,35.93
2019-01-25T10:26:23.376Z,35.20
2019-01-25T10:28:52.692Z,31.90
2019-01-25T10:31:22.363Z,32.70
2019-01-25T10:33:51.936Z,34.13
2019-01-25T10:36:21.247Z,34.87
2019-01-25T10:38:51.028Z,35.17
2019-01-25T10:41:20.594Z,34.43
2019-01-25T10:43:50.630Z,34.37
2019-01-25T10:46:20.126Z,34.80
2019-01-25T10:48:49.474Z,34.20
2019-01-25T10:51:19.268Z,39.33
2019-01-25T10:53:48.848Z,34.27
2019-01-25T10:56:18.855Z,33.97
2019-01-25T10:58:48.306Z,37.00
2019-01-25T11:01:17.824Z,34.60
2019-01-25T11:03:47.691Z,33.67
2019-01-25T11:06:16.973Z,34.97
2019-01-25T11:08:46.609Z,34.63
2019-01-25T11:11:16.749Z,32.37
2019-01-25T11:13:46.337Z,31.60
2019-01-25T11:16:16.034Z,24.90
2019-01-25T11:18:45.771Z,25.00
2019-01-25T11:21:18.227Z,23.80
2019-01-25T11:23:47.740Z,20.70
2019-01-25T11:26:17.094Z,16.60
2019-01-25T11:28:46.886Z,16.23
2019-01-25T11:31:17.128Z,14.13
2019-01-25T11:33:47.207Z,14.27
2019-01-25T11:36:16.626Z,14.23
2019-01-25T11:38:45.584Z,12.20
2019-01-25T11:41:14.933Z,13.37
2019-01-25T11:43:44.194Z,13.00
2019-01-25T11:46:13.251Z,12.23
2019-01-25T11:48:42.402Z,11.73
2019-01-25T11:51:11.922Z,12.73
2019-01-25T11:53:41.252Z,11.43
2019-01-25T11:56:10.677Z,11.67
2019-01-25T11:58:40.010Z,11.57
2019-01-25T12:01:09.127Z,11.50
2019-01-25T12:03:38.824Z,12.37
2019-01-25T12:06:08.443Z,9.33
2019-01-25T12:08:37.449Z,9.90
2019-01-25T12:11:06.843Z,10.87
2019-01-25T12:13:36.449Z,10.40
2019-01-25T12:16:05.724Z,11.80
2019-01-25T12:18:34.724Z,11.13
2019-01-25T12:21:03.884Z,11.80
2019-01-25T12:23:32.939Z,11.37
2019-01-25T12:26:02.238Z,11.30
2019-01-25T12:28:32.115Z,11.43
2019-01-25T12:31:01.085Z,11.53
2019-01-25T12:33:30.471Z,11.40
2019-01-25T12:35:59.566Z,11.37
2019-01-25T12:38:28.502Z,11.73
2019-01-25T12:40:57.661Z,12.33
2019-01-25T12:43:26.920Z,11.73
2019-01-25T12:45:56.226Z,11.43
2019-01-25T12:48:25.584Z,10.43
2019-01-25T12:51:15.090Z,10.40
2019-01-25T12:53:44.491Z,10.67
2019-01-25T12:56:13.544Z,12.43
2019-01-25T12:58:42.924Z,12.20
2019-01-25T13:01:11.958Z,11.77
2019-01-25T13:03:41.384Z,13.20
2019-01-25T13:06:10.513Z,13.80
2019-01-25T13:08:39.867Z,14.10
2019-01-25T13:11:08.925Z,12.60
2019-01-25T13:13:37.927Z,13.17
2019-01-25T13:16:07.327Z,13.13
2019-01-25T13:18:37.416Z,12.87
2019-01-25T13:21:06.460Z,10.83
2019-01-25T13:23:36.017Z,10.33
2019-01-25T13:26:05.623Z,35.80
2019-01-25T13:28:34.825Z,10.80
2019-01-25T13:31:04.934Z,9.27
2019-01-25T13:33:34.025Z,9.53
2019-01-25T13:36:04.891Z,8.80
2019-01-25T13:38:33.802Z,9.93
2019-01-25T13:41:02.884Z,9.27
2019-01-25T13:43:38.859Z,8.13
2019-01-25T13:46:03.314Z,7.70
2019-01-25T13:48:32.681Z,7.07
2019-01-25T13:51:01.777Z,7.63
2019-01-25T13:53:31.201Z,7.77
2019-01-25T13:56:00.590Z,8.10
2019-01-25T13:58:29.877Z,8.90
2019-01-25T14:00:59.872Z,8.97
2019-01-25T14:03:28.931Z,10.93
2019-01-25T14:05:57.923Z,9.53
2019-01-25T14:08:27.241Z,9.27
2019-01-25T14:10:56.276Z,9.37
2019-01-25T14:13:25.479Z,8.17
2019-01-25T14:15:54.459Z,8.80
2019-01-25T14:18:23.379Z,8.87
2019-01-25T14:20:52.382Z,8.83
2019-01-25T14:23:21.352Z,8.60
2019-01-25T14:25:50.257Z,8.53
2019-01-25T14:28:19.133Z,8.13
2019-01-25T14:30:48.428Z,7.63
2019-01-25T14:33:17.306Z,7.93
2019-01-25T14:35:46.312Z,6.73
2019-01-25T14:38:17.006Z,6.27
2019-01-25T14:40:46.770Z,6.83
2019-01-25T14:43:15.711Z,6.10
2019-01-25T14:45:44.753Z,5.03
2019-01-25T14:48:13.758Z,5.23
2019-01-25T14:50:42.815Z,5.73
2019-01-25T14:53:11.856Z,5.80
2019-01-25T14:55:40.996Z,5.47
2019-01-25T14:58:10.060Z,6.47
2019-01-25T15:00:39.092Z,6.17
2019-01-25T15:03:08.141Z,6.03
2019-01-25T15:05:37.097Z,6.83
2019-01-25T15:08:06.450Z,6.53
2019-01-25T15:10:35.789Z,6.70
2019-01-25T15:13:06.217Z,7.77
2019-01-25T15:15:35.871Z,6.23
2019-01-25T15:18:05.859Z,6.87
2019-01-25T15:20:35.168Z,6.63
2019-01-25T15:23:04.189Z,6.30
2019-01-25T15:25:33.247Z,5.63
2019-01-25T15:28:02.640Z,5.90
2019-01-25T15:30:32.743Z,6.23
2019-01-25T15:33:01.741Z,5.90
2019-01-25T15:35:30.773Z,6.90
2019-01-25T15:37:59.756Z,6.87
2019-01-25T15:40:29.122Z,7.30
2019-01-25T15:42:58.340Z,7.80
2019-01-25T15:45:27.435Z,15.13
2019-01-25T15:47:56.612Z,6.37
2019-01-25T15:50:28.157Z,6.17
2019-01-25T15:52:57.160Z,6.47
2019-01-25T15:55:26.792Z,5.87
2019-01-25T15:57:55.985Z,6.70
2019-01-25T16:00:26.432Z,6.43
2019-01-25T16:02:55.481Z,6.30
2019-01-25T16:05:24.955Z,6.40
2019-01-25T16:07:53.995Z,6.60
2019-01-25T16:10:23.808Z,6.93
2019-01-25T16:12:53.173Z,6.53
2019-01-25T16:15:24.448Z,6.57
2019-01-25T16:17:53.686Z,6.37
2019-01-25T16:20:24.164Z,6.80
2019-01-25T16:22:54.524Z,6.53
2019-01-25T16:25:26.231Z,7.30
2019-01-25T16:27:55.232Z,6.10
2019-01-25T16:30:26.611Z,6.70
2019-01-25T16:32:55.924Z,7.87
2019-01-25T16:35:25.532Z,7.80
2019-01-25T16:37:54.575Z,10.27
2019-01-25T16:40:24.493Z,8.33
2019-01-25T16:42:53.513Z,8.10
2019-01-25T16:45:28.363Z,8.80
2019-01-25T16:47:57.290Z,9.20
2019-01-25T16:50:26.304Z,9.37
2019-01-25T16:52:55.342Z,8.97
2019-01-25T16:55:24.404Z,10.07
2019-01-25T16:57:53.640Z,10.17
2019-01-25T17:00:25.277Z,9.97
2019-01-25T17:02:54.293Z,10.30
2019-01-25T17:05:23.336Z,10.13
2019-01-25T17:07:52.384Z,10.47
2019-01-25T17:10:21.406Z,11.10
2019-01-25T17:12:50.607Z,10.60
2019-01-25T17:15:19.590Z,11.47
2019-01-25T17:17:48.534Z,11.13
2019-01-25T17:20:21.387Z,10.27
2019-01-25T17:22:49.602Z,10.57
2019-01-25T17:25:18.677Z,10.00
2019-01-25T17:27:47.809Z,10.00
2019-01-25T17:30:20.921Z,10.47
2019-01-25T17:32:50.191Z,9.47
2019-01-25T17:35:19.155Z,11.17
2019-01-25T17:37:48.516Z,10.90
2019-01-25T17:40:18.772Z,10.20
2019-01-25T17:42:48.091Z,10.23
2019-01-25T17:45:17.506Z,11.40
2019-01-25T17:47:46.903Z,11.93
2019-01-25T17:50:16.074Z,11.60
2019-01-25T17:52:45.357Z,13.00
2019-01-25T17:55:14.640Z,14.83
2019-01-25T17:57:44.228Z,12.50
2019-01-25T18:00:20.895Z,12.73
2019-01-25T18:02:49.929Z,12.93
2019-01-25T18:05:20.267Z,13.60
2019-01-25T18:07:49.262Z,12.77
2019-01-25T18:10:18.697Z,12.53
2019-01-25T18:12:47.810Z,14.83
2019-01-25T18:15:16.859Z,13.60
2019-01-25T18:17:45.804Z,16.30
2019-01-25T18:20:16.168Z,14.00
2019-01-25T18:22:45.218Z,16.33
2019-01-25T18:25:17.347Z,16.30
2019-01-25T18:27:49.981Z,24.13
2019-01-25T18:30:32.277Z,15.77
2019-01-25T18:33:01.488Z,16.40
2019-01-25T18:35:30.452Z,15.67
2019-01-25T18:37:59.832Z,13.73
2019-01-25T18:40:28.848Z,14.73
2019-01-25T18:42:57.879Z,14.47
2019-01-25T18:45:26.831Z,15.40
2019-01-25T18:47:55.819Z,16.53
2019-01-25T18:50:24.767Z,14.73
2019-01-25T18:52:54.032Z,14.20
2019-01-25T18:55:23.353Z,14.20
2019-01-25T18:57:52.481Z,18.33
2019-01-25T19:00:22.282Z,14.83
2019-01-25T19:02:51.340Z,13.80
2019-01-25T19:05:20.424Z,25.50
2019-01-25T19:07:49.474Z,14.27
2019-01-25T19:10:23.498Z,20.03
2019-01-25T19:12:52.524Z,31.17
2019-01-25T19:15:24.225Z,17.93
2019-01-25T19:17:53.336Z,15.47
2019-01-25T19:20:22.371Z,16.30
2019-01-25T19:22:51.944Z,16.40
2019-01-25T19:25:21.038Z,16.50
2019-01-25T19:27:50.033Z,15.27
2019-01-25T19:30:28.242Z,14.87
2019-01-25T19:32:57.935Z,17.50
2019-01-25T19:35:28.702Z,17.33
2019-01-25T19:37:58.072Z,13.63
2019-01-25T19:40:28.600Z,13.47
2019-01-25T19:42:57.901Z,16.40
2019-01-25T19:45:27.269Z,13.77
2019-01-25T19:47:56.619Z,14.20
2019-01-25T19:50:26.114Z,14.43
2019-01-25T19:52:55.735Z,19.57
2019-01-25T19:55:26.259Z,18.10
2019-01-25T19:57:55.667Z,14.37
2019-01-25T20:00:30.711Z,14.70
2019-01-25T20:03:00.019Z,15.60
2019-01-25T20:05:30.094Z,19.87
2019-01-25T20:07:59.078Z,15.73
2019-01-25T20:10:28.720Z,15.50
2019-01-25T20:12:58.106Z,14.90
2019-01-25T20:15:27.163Z,17.23
2019-01-25T20:17:56.462Z,15.23
2019-01-25T20:20:27.552Z,28.00
2019-01-25T20:22:56.768Z,17.83
2019-01-25T20:25:26.197Z,20.03
2019-01-25T20:27:55.367Z,16.33
2019-01-25T20:30:26.937Z,16.80
2019-01-25T20:32:57.659Z,18.53
2019-01-25T20:35:35.023Z,18.83
2019-01-25T20:38:04.830Z,17.20
2019-01-25T20:40:37.314Z,16.63
2019-01-25T20:43:06.808Z,16.13
2019-01-25T20:45:37.475Z,21.57
2019-01-25T20:48:06.837Z,17.10
2019-01-25T20:50:36.460Z,15.87
2019-01-25T20:53:06.624Z,15.43
2019-01-25T20:55:35.607Z,19.27
2019-01-25T20:58:05.475Z,16.70
2019-01-25T21:00:36.264Z,16.97
2019-01-25T21:03:07.096Z,15.97
2019-01-25T21:05:36.460Z,17.53
2019-01-25T21:08:05.529Z,28.47
2019-01-25T21:10:34.535Z,26.00
2019-01-25T21:13:05.374Z,16.00
2019-01-25T21:15:35.650Z,23.57
2019-01-25T21:18:06.118Z,16.33
2019-01-25T21:20:37.632Z,14.43
2019-01-25T21:23:07.148Z,14.50
2019-01-25T21:25:36.715Z,16.10
2019-01-25T21:28:05.857Z,16.50
2019-01-25T21:30:35.060Z,19.17
2019-01-25T21:33:04.496Z,15.20
2019-01-25T21:35:33.651Z,16.43
2019-01-25T21:38:03.085Z,16.53
2019-01-25T21:40:33.097Z,20.03
2019-01-25T21:43:02.872Z,18.67
2019-01-25T21:45:33.940Z,20.87
2019-01-25T21:48:05.276Z,19.57
2019-01-25T21:50:36.462Z,23.27
2019-01-25T21:53:06.140Z,16.30
2019-01-25T21:55:35.187Z,25.20
2019-01-25T21:58:05.860Z,16.97
2019-01-25T22:00:35.462Z,16.93
2019-01-25T22:03:06.485Z,15.67
2019-01-25T22:05:35.538Z,16.67
2019-01-25T22:08:04.927Z,16.07
2019-01-25T22:10:47.170Z,16.37
2019-01-25T22:13:16.559Z,15.13
2019-01-25T22:15:50.784Z,15.50
2019-01-25T22:18:16.405Z,14.00
2019-01-25T22:20:45.424Z,22.57
2019-01-25T22:23:14.760Z,14.17
2019-01-25T22:25:43.722Z,14.67
2019-01-25T22:28:13.164Z,15.77
2019-01-25T22:30:42.489Z,20.07
2019-01-25T22:33:11.519Z,18.13
2019-01-25T22:35:40.913Z,17.10
2019-01-25T22:38:09.954Z,22.97
2019-01-25T22:40:39.013Z,17.27
2019-01-25T22:43:08.169Z,20.73
2019-01-25T22:45:37.224Z,24.23
2019-01-25T22:48:06.678Z,18.77
2019-01-25T22:50:37.022Z,17.43
2019-01-25T22:53:06.399Z,15.70
2019-01-25T22:55:35.905Z,21.40
2019-01-25T22:58:06.396Z,19.93
2019-01-25T23:01:12.913Z,27.90
2019-01-25T23:03:47.396Z,15.93
2019-01-25T23:06:46.489Z,16.07
2019-01-25T23:09:45.911Z,24.70
2019-01-25T23:12:14.961Z,19.37
2019-01-25T23:14:44.074Z,16.20
2019-01-25T23:17:13.522Z,15.07
2019-01-25T23:19:43.042Z,15.90
2019-01-25T23:22:12.056Z,16.30
2019-01-25T23:24:41.468Z,16.53
2019-01-25T23:27:10.479Z,16.17
2019-01-25T23:29:39.740Z,17.57
2019-01-25T23:32:08.861Z,15.40
2019-01-25T23:34:37.918Z,14.17
2019-01-25T23:37:06.959Z,13.43
2019-01-25T23:39:36.267Z,10.03
2019-01-25T23:42:05.341Z,10.77
2019-01-25T23:44:34.338Z,8.00
2019-01-25T23:47:03.477Z,9.90
2019-01-25T23:49:33.302Z,8.83
2019-01-25T23:52:02.677Z,8.43
2019-01-25T23:54:32.104Z,8.20
2019-01-25T23:57:01.150Z,8.43
2019-01-25T23:59:30.466Z,8.40
